Time;durP1;ratioP1;P1;durP2;ratioP2;P2;SDS_P1;SDS_P2;PMS_P1;PMS_P2;Temp;Humidity;BMP_temperature;BMP_pressure;BME280_temperature;BME280_humidity;BME280_pressure;Samples;Min_cycle;Max_cycle;Signal;HPM_P1;HPM_P2
2021/07/09 17:25:00;;;;;;;10.10;5.88;;;28.80;66.20;;;;;;5070718;28;20368;-78
2021/07/09 17:27:26;;;;;;;15.30;5.10;;;28.40;65.50;;;;;;5066886;28;20035;-79
2021/07/09 17:29:52;;;;;;;12.90;8.63;;;28.40;65.80;;;;;;5063887;28;20025;-79
2021/07/09 17:32:18;;;;;;;9.88;6.53;;;28.30;66.10;;;;;;5070643;28;20021;-79
2021/07/09 17:34:43;;;;;;;10.20;6.43;;;28.30;66.90;;;;;;5070491;28;20024;-79
2021/07/09 17:37:09;;;;;;;6.97;5.57;;;28.30;66.40;;;;;;5070462;28;20074;-79
2021/07/09 17:39:35;;;;;;;10.23;5.65;;;28.30;66.50;;;;;;5076738;28;20104;-79
2021/07/09 17:42:02;;;;;;;8.82;5.75;;;28.30;66.90;;;;;;5070382;28;20509;-81
2021/07/09 17:44:28;;;;;;;16.92;7.60;;;28.30;66.40;;;;;;5068957;28;20086;-79
2021/07/09 17:46:54;;;;;;;16.88;8.48;;;28.30;66.10;;;;;;5069210;28;20025;-79
2021/07/09 17:49:20;;;;;;;7.57;5.90;;;28.30;66.20;;;;;;5070233;28;20013;-79
2021/07/09 17:51:46;;;;;;;8.20;6.15;;;28.30;66.10;;;;;;5053422;28;20029;-85
2021/07/09 17:54:12;;;;;;;6.30;5.35;;;28.30;66.60;;;;;;5049256;28;20486;-86
2021/07/09 17:56:37;;;;;;;8.65;5.30;;;28.30;65.80;;;;;;5068765;28;20031;-83
2021/07/09 17:59:03;;;;;;;10.25;5.75;;;28.40;65.90;;;;;;5069912;28;20036;-83
2021/07/09 18:01:29;;;;;;;7.25;5.30;;;28.40;66.60;;;;;;5068793;28;20032;-85
2021/07/09 18:03:54;;;;;;;7.43;5.15;;;28.40;66.70;;;;;;5068282;28;20035;-85
2021/07/09 18:06:21;;;;;;;5.45;4.75;;;28.40;67.10;;;;;;5069791;28;20020;-89
2021/07/09 18:08:48;;;;;;;21.80;7.32;;;28.30;67.70;;;;;;5069246;28;20045;-87
2021/07/09 18:11:13;;;;;;;14.07;5.60;;;28.30;67.80;;;;;;5068646;28;20024;-83
2021/07/09 18:13:39;;;;;;;7.18;5.78;;;28.30;67.60;;;;;;5068611;28;20039;-83
2021/07/09 18:16:05;;;;;;;75.10;67.22;;;28.30;67.90;;;;;;5069669;28;20103;-83
2021/07/09 18:18:31;;;;;;;57.40;51.33;;;28.30;67.60;;;;;;5069641;28;20099;-85
2021/07/09 18:20:57;;;;;;;108.53;87.88;;;28.30;67.60;;;;;;5068498;28;20052;-82
2021/07/09 18:23:25;;;;;;;62.13;52.13;;;28.30;68.10;;;;;;5069366;28;20812;-89
2021/07/09 18:25:52;;;;;;;50.25;42.03;;;28.30;67.90;;;;;;5068431;28;20017;-86
2021/07/09 18:28:19;;;;;;;49.83;40.20;;;28.20;68.10;;;;;;5068567;28;20071;-87
2021/07/09 18:30:44;;;;;;;44.72;39.53;;;28.10;68.30;;;;;;5068895;28;20021;-91
2021/07/09 18:33:10;;;;;;;50.72;41.70;;;28.10;68.50;;;;;;5069756;28;20081;-86
2021/07/09 18:35:36;;;;;;;62.97;47.40;;;28.00;68.70;;;;;;5060745;28;20134;-88
2021/07/09 18:38:02;;;;;;;45.70;32.67;;;28.00;69.60;;;;;;5055141;28;20043;-88
2021/07/09 18:40:29;;;;;;;26.58;22.35;;;27.90;69.10;;;;;;5054759;28;20427;-85
2021/07/09 18:42:56;;;;;;;18.02;14.98;;;27.80;69.20;;;;;;5054675;28;20032;-85
2021/07/09 18:45:22;;;;;;;16.15;13.07;;;27.80;69.60;;;;;;5056004;28;20486;-88
2021/07/09 18:47:47;;;;;;;25.67;18.88;;;27.70;69.60;;;;;;5055071;28;20115;-88
2021/07/09 18:50:54;;;;;;;21.58;14.15;;;27.60;69.30;;;;;;5111403;27;20386;-84
2021/07/09 18:53:20;;;;;;;20.27;15.43;;;27.60;70.10;;;;;;5111136;28;20028;-82
2021/07/09 18:55:46;;;;;;;18.73;14.70;;;27.60;70.10;;;;;;5090861;28;20060;-85
2021/07/09 18:58:12;;;;;;;19.30;13.45;;;27.50;70.30;;;;;;5089636;28;20068;-84
2021/07/09 19:00:39;;;;;;;11.65;8.23;;;27.50;70.50;;;;;;5090865;28;20028;-84
2021/07/09 19:03:04;;;;;;;13.43;7.80;;;27.50;70.60;;;;;;5090763;28;20048;-83
2021/07/09 19:05:30;;;;;;;10.00;6.90;;;27.40;70.70;;;;;;5096270;28;20136;-83
2021/07/09 19:07:56;;;;;;;12.20;6.03;;;27.30;70.90;;;;;;5111041;28;20066;-82
2021/07/09 19:10:22;;;;;;;13.38;7.88;;;27.30;70.90;;;;;;5109664;28;20437;-85
2021/07/09 19:12:50;;;;;;;16.73;7.80;;;27.20;71.40;;;;;;5110939;28;20351;-85
2021/07/09 19:15:18;;;;;;;7.68;5.90;;;27.10;71.70;;;;;;5109446;28;20126;-84
2021/07/09 19:17:46;;;;;;;6.55;5.38;;;27.10;71.80;;;;;;5110932;28;20073;-82
2021/07/09 19:20:24;;;;;;;7.80;5.97;;;27.00;72.00;;;;;;5109582;28;20119;-82
2021/07/09 19:22:50;;;;;;;6.22;5.05;;;26.90;72.50;;;;;;5109408;28;20504;-82
2021/07/09 19:25:16;;;;;;;15.38;9.43;;;26.90;72.30;;;;;;5108773;28;20028;-81
2021/07/09 19:27:43;;;;;;;13.65;7.63;;;26.90;72.40;;;;;;5090321;28;20036;-81
2021/07/09 19:30:10;;;;;;;7.95;6.18;;;26.80;72.50;;;;;;5090166;28;20028;-81
2021/07/09 19:32:37;;;;;;;8.88;6.45;;;26.80;72.70;;;;;;5090633;28;20082;-92
2021/07/09 19:35:04;;;;;;;7.47;5.60;;;26.80;73.00;;;;;;5089372;28;20059;-88
2021/07/09 19:37:30;;;;;;;10.05;6.60;;;26.80;73.00;;;;;;5107663;28;20020;-87
2021/07/09 19:39:56;;;;;;;9.55;6.40;;;26.80;73.00;;;;;;5109386;28;20122;-86
2021/07/09 19:42:22;;;;;;;11.35;6.68;;;26.80;73.20;;;;;;5110796;28;20064;-86
2021/07/09 19:44:47;;;;;;;12.25;7.25;;;26.80;73.20;;;;;;5109431;28;20028;-86
2021/07/09 19:47:13;;;;;;;16.63;7.15;;;26.80;73.30;;;;;;5093921;28;20490;-87
2021/07/09 19:49:39;;;;;;;12.07;7.40;;;26.80;73.50;;;;;;5090051;28;20132;-87
2021/07/09 19:52:05;;;;;;;11.38;6.78;;;26.70;73.60;;;;;;5088794;28;20066;-89
2021/07/09 19:54:31;;;;;;;46.92;20.00;;;26.70;73.80;;;;;;5088487;28;20100;-81
2021/07/09 19:56:56;;;;;;;33.00;14.05;;;26.70;74.00;;;;;;5089717;28;20028;-80
2021/07/09 19:59:24;;;;;;;15.77;9.93;;;26.70;74.10;;;;;;5088577;28;20114;-80
2021/07/09 20:01:50;;;;;;;9.63;7.45;;;26.60;74.20;;;;;;5078561;28;20020;-80
2021/07/09 20:04:16;;;;;;;11.90;8.00;;;26.60;74.50;;;;;;5077785;28;20024;-80
2021/07/09 20:06:41;;;;;;;13.60;9.23;;;26.60;74.70;;;;;;5074746;28;20031;-80
2021/07/09 20:09:07;;;;;;;14.02;8.45;;;26.40;75.00;;;;;;5076040;28;20021;-80
2021/07/09 20:11:33;;;;;;;15.40;8.55;;;26.40;75.60;;;;;;5074653;28;20028;-80
2021/07/09 20:13:58;;;;;;;11.77;8.82;;;26.30;76.30;;;;;;5096216;28;20098;-80
2021/07/09 20:16:24;;;;;;;12.23;9.25;;;26.30;76.20;;;;;;5096164;28;20041;-80
2021/07/09 20:18:50;;;;;;;12.48;8.20;;;26.20;76.30;;;;;;5096116;28;20099;-81
2021/07/09 20:21:15;;;;;;;13.43;8.23;;;26.10;76.40;;;;;;5095899;28;20420;-80
2021/07/09 20:23:42;;;;;;;14.57;7.57;;;26.10;76.60;;;;;;5088516;28;20087;-80
2021/07/09 20:26:08;;;;;;;9.95;6.82;;;26.00;77.00;;;;;;5089579;28;20024;-79
2021/07/09 20:28:34;;;;;;;10.18;7.05;;;26.00;77.50;;;;;;5096540;28;20024;-82
2021/07/09 20:31:00;;;;;;;17.25;12.65;;;26.00;77.10;;;;;;5092074;28;20021;-81
2021/07/09 20:33:26;;;;;;;10.48;7.70;;;26.00;76.90;;;;;;5094905;28;20020;-86
2021/07/09 20:35:52;;;;;;;7.25;6.05;;;26.10;77.50;;;;;;5094857;28;20489;-81
2021/07/09 20:38:18;;;;;;;9.63;7.65;;;26.10;77.20;;;;;;5094667;28;20024;-84
2021/07/09 20:40:44;;;;;;;25.02;19.05;;;26.10;77.20;;;;;;5094721;28;20462;-83
2021/07/09 20:43:10;;;;;;;25.00;16.27;;;26.10;77.10;;;;;;5094364;28;20031;-80
2021/07/09 20:45:37;;;;;;;12.52;8.43;;;26.20;77.30;;;;;;5096183;28;20411;-81
2021/07/09 20:48:04;;;;;;;8.32;6.22;;;26.20;76.70;;;;;;5095679;28;20501;-80
2021/07/09 20:50:30;;;;;;;9.98;5.75;;;26.20;75.40;;;;;;5095365;28;20494;-80
2021/07/09 20:52:57;;;;;;;7.05;5.43;;;26.20;74.60;;;;;;5096000;28;20115;-79
2021/07/09 20:55:25;;;;;;;6.00;5.38;;;26.30;73.90;;;;;;5094212;28;20110;-79
2021/07/09 20:57:51;;;;;;;7.38;5.65;;;26.30;73.60;;;;;;5084774;28;20024;-79
2021/07/09 21:00:17;;;;;;;6.25;5.53;;;26.30;73.30;;;;;;5074138;28;20336;-79
2021/07/09 21:02:44;;;;;;;6.72;5.65;;;26.40;73.20;;;;;;5073832;28;20037;-79
2021/07/09 21:05:10;;;;;;;7.00;5.60;;;26.30;72.90;;;;;;5074018;28;20035;-78
2021/07/09 21:07:36;;;;;;;11.65;5.93;;;26.40;72.80;;;;;;5073810;28;20040;-79
2021/07/09 21:10:04;;;;;;;10.38;8.18;;;26.40;72.60;;;;;;5075059;28;20024;-79
2021/07/09 21:12:30;;;;;;;8.23;6.65;;;26.40;72.50;;;;;;5074021;28;20031;-79
2021/07/09 21:14:56;;;;;;;6.57;5.53;;;26.40;72.30;;;;;;5074039;28;20028;-79
2021/07/09 21:17:21;;;;;;;6.78;5.28;;;26.40;72.40;;;;;;5082866;28;20360;-78
2021/07/09 21:19:47;;;;;;;6.95;5.43;;;26.40;72.40;;;;;;5073573;28;20115;-79
2021/07/09 21:22:13;;;;;;;8.32;5.43;;;26.40;72.70;;;;;;5075091;28;20024;-79
2021/07/09 21:24:38;;;;;;;6.68;5.45;;;26.40;72.80;;;;;;5075120;28;20028;-79
2021/07/09 21:27:04;;;;;;;6.85;5.20;;;26.40;72.60;;;;;;5073484;28;20390;-79
2021/07/09 21:29:30;;;;;;;6.90;5.95;;;26.30;72.50;;;;;;5074481;28;20036;-80
2021/07/09 21:31:56;;;;;;;7.60;5.50;;;26.30;72.70;;;;;;5074647;28;20469;-80
2021/07/09 21:34:21;;;;;;;5.85;4.72;;;26.30;73.00;;;;;;5073351;28;20378;-80
2021/07/09 21:36:47;;;;;;;6.95;4.95;;;26.30;73.20;;;;;;5075036;28;20093;-79
2021/07/09 21:39:13;;;;;;;5.85;4.68;;;26.30;73.40;;;;;;5074581;28;20025;-79
2021/07/09 21:41:39;;;;;;;5.13;4.55;;;26.30;73.70;;;;;;5073153;28;20382;-79
2021/07/09 21:44:05;;;;;;;6.38;4.80;;;26.30;74.00;;;;;;5092248;28;20028;-79
2021/07/09 21:46:31;;;;;;;6.10;5.38;;;26.20;74.20;;;;;;5094690;28;20435;-79
2021/07/09 21:48:56;;;;;;;6.18;4.97;;;26.20;74.50;;;;;;5094518;28;20056;-79
2021/07/09 21:51:22;;;;;;;8.20;5.50;;;26.20;74.70;;;;;;5094892;28;20042;-79
2021/07/09 21:53:48;;;;;;;6.38;5.03;;;26.20;74.90;;;;;;5080741;28;20075;-79
2021/07/09 21:56:13;;;;;;;7.95;5.00;;;26.10;75.00;;;;;;5072913;28;20098;-79
2021/07/09 21:58:39;;;;;;;8.20;5.63;;;26.10;75.30;;;;;;5072942;28;20020;-79
2021/07/09 22:01:05;;;;;;;7.03;5.32;;;26.10;75.90;;;;;;5074424;28;20016;-79
2021/07/09 22:03:31;;;;;;;7.55;5.43;;;26.10;76.20;;;;;;5074075;28;20516;-79
2021/07/09 22:05:56;;;;;;;8.25;5.25;;;26.10;76.30;;;;;;5073922;28;20025;-79
2021/07/09 22:08:22;;;;;;;8.25;5.85;;;26.10;76.50;;;;;;5079768;28;20371;-79
2021/07/09 22:10:48;;;;;;;6.75;5.47;;;26.00;76.80;;;;;;5094227;28;20024;-79
2021/07/09 22:13:13;;;;;;;8.00;5.50;;;26.00;76.80;;;;;;5094349;28;20347;-79
2021/07/09 22:15:40;;;;;;;5.70;4.90;;;26.00;76.90;;;;;;5092908;28;20028;-79
2021/07/09 22:18:06;;;;;;;5.63;4.80;;;26.00;77.00;;;;;;5094088;28;20108;-79
2021/07/09 22:20:32;;;;;;;6.95;5.30;;;26.00;77.40;;;;;;5094065;28;20028;-79
2021/07/09 22:22:58;;;;;;;8.88;5.13;;;26.00;77.50;;;;;;5092788;28;20028;-79
2021/07/09 22:25:24;;;;;;;6.38;5.65;;;25.90;77.60;;;;;;5093779;28;20028;-79
2021/07/09 22:27:49;;;;;;;6.05;4.97;;;25.90;77.70;;;;;;5092754;28;20059;-79
2021/07/09 22:30:16;;;;;;;8.93;5.07;;;25.90;78.50;;;;;;5092675;28;20466;-79
2021/07/09 22:32:42;;;;;;;6.28;5.28;;;25.90;78.10;;;;;;5089133;28;20542;-79
2021/07/09 22:35:09;;;;;;;5.70;5.15;;;25.80;78.20;;;;;;5073738;28;20025;-80
2021/07/09 22:37:35;;;;;;;6.38;4.95;;;25.80;78.50;;;;;;5072457;28;20488;-80
2021/07/09 22:40:04;;;;;;;5.47;4.40;;;25.80;78.60;;;;;;5072380;28;20111;-80
2021/07/09 22:42:29;;;;;;;6.00;4.95;;;25.80;78.80;;;;;;5074954;28;20390;-80
2021/07/09 22:44:55;;;;;;;7.18;5.32;;;25.80;79.00;;;;;;5093752;28;20024;-80
2021/07/09 22:47:21;;;;;;;8.77;5.40;;;25.70;79.70;;;;;;5093886;28;20466;-80
2021/07/09 22:49:46;;;;;;;6.88;5.18;;;25.70;79.40;;;;;;5093423;28;20492;-80
2021/07/09 22:52:12;;;;;;;6.88;5.47;;;25.60;79.40;;;;;;5076031;28;20031;-80
2021/07/09 22:54:38;;;;;;;5.82;5.22;;;25.60;79.60;;;;;;5073505;28;20028;-80
2021/07/09 22:57:04;;;;;;;5.90;5.28;;;25.60;79.70;;;;;;5073529;28;20382;-80
2021/07/09 22:59:30;;;;;;;5.82;5.32;;;25.50;79.70;;;;;;5073695;28;20029;-80
2021/07/09 23:01:55;;;;;;;7.07;5.25;;;25.50;79.90;;;;;;5072132;28;20028;-80
2021/07/09 23:04:22;;;;;;;10.68;5.80;;;25.40;79.80;;;;;;5072195;28;20367;-80
2021/07/09 23:06:47;;;;;;;5.95;5.07;;;25.40;80.10;;;;;;5072122;28;20025;-80
2021/07/09 23:09:13;;;;;;;5.90;5.30;;;25.40;80.30;;;;;;5073595;28;20020;-80
2021/07/09 23:11:39;;;;;;;7.38;5.18;;;25.40;80.50;;;;;;5073427;28;20020;-80
2021/07/09 23:14:06;;;;;;;6.63;5.40;;;25.40;80.70;;;;;;5072035;28;20025;-80
2021/07/09 23:16:32;;;;;;;6.15;5.47;;;25.40;80.80;;;;;;5071993;28;20024;-80
2021/07/09 23:18:58;;;;;;;6.53;5.30;;;25.40;81.20;;;;;;5073316;28;20360;-80
2021/07/09 23:21:23;;;;;;;6.95;5.60;;;25.30;81.20;;;;;;5076760;28;20027;-80
2021/07/09 23:23:49;;;;;;;7.30;5.55;;;25.30;81.70;;;;;;5092144;28;20020;-80
2021/07/09 23:26:15;;;;;;;5.90;5.30;;;25.30;81.60;;;;;;5092201;28;20457;-80
2021/07/09 23:28:41;;;;;;;6.22;5.60;;;25.30;81.90;;;;;;5093671;28;20033;-80
2021/07/09 23:31:07;;;;;;;6.43;5.43;;;25.30;81.90;;;;;;5092223;28;20146;-80
2021/07/09 23:33:33;;;;;;;7.88;5.50;;;25.20;82.00;;;;;;5093338;28;20028;-79
2021/07/09 23:35:58;;;;;;;5.97;5.28;;;25.20;82.20;;;;;;5094315;28;20020;-79
2021/07/09 23:38:24;;;;;;;5.60;5.10;;;25.20;82.30;;;;;;5097480;28;20024;-79
2021/07/09 23:40:50;;;;;;;7.53;5.88;;;25.10;82.60;;;;;;5097242;28;20113;-79
2021/07/09 23:43:15;;;;;;;9.07;5.60;;;25.10;82.80;;;;;;5084391;28;20047;-79
2021/07/09 23:45:41;;;;;;;6.93;5.60;;;25.10;83.10;;;;;;5076833;28;20466;-79
2021/07/09 23:48:07;;;;;;;5.47;4.97;;;25.00;83.60;;;;;;5075394;28;20526;-79
2021/07/09 23:50:34;;;;;;;6.90;5.82;;;25.00;83.60;;;;;;5075097;28;20049;-79
2021/07/09 23:52:59;;;;;;;6.10;5.20;;;24.90;83.70;;;;;;5084239;28;20034;-79
2021/07/09 23:55:25;;;;;;;6.32;5.05;;;24.80;83.90;;;;;;5097383;28;20586;-79
2021/07/09 23:57:51;;;;;;;8.25;5.38;;;24.80;84.70;;;;;;5095568;28;20020;-79
